createdAt,value
2022-12-17T00:00:22.014Z,42.77
2022-12-17T00:03:16.496Z,44.23
2022-12-17T00:06:02.086Z,44.13
2022-12-17T00:08:47.675Z,45.33
2022-12-17T00:11:33.297Z,48.10
2022-12-17T00:14:19.044Z,48.43
2022-12-17T00:17:05.813Z,45.80
2022-12-17T00:19:50.474Z,47.40
2022-12-17T00:22:36.069Z,47.63
2022-12-17T00:25:21.603Z,47.20
2022-12-17T00:28:07.301Z,45.53
2022-12-17T00:30:52.712Z,46.83
2022-12-17T00:33:39.457Z,48.33
2022-12-17T00:36:25.123Z,46.67
2022-12-17T00:39:10.751Z,45.27
2022-12-17T00:41:56.919Z,45.60
2022-12-17T00:44:42.393Z,46.50
2022-12-17T00:47:27.813Z,45.53
2022-12-17T00:50:14.745Z,43.67
2022-12-17T00:53:00.287Z,43.57
2022-12-17T00:55:45.749Z,43.17
2022-12-17T00:58:31.350Z,45.27
2022-12-17T01:01:17.523Z,44.73
2022-12-17T01:04:11.303Z,43.93
2022-12-17T01:06:58.009Z,44.10
2022-12-17T01:09:43.745Z,42.80
2022-12-17T01:12:29.355Z,45.23
2022-12-17T01:15:14.812Z,43.50
2022-12-17T01:18:00.343Z,43.07
2022-12-17T01:20:44.918Z,44.67
2022-12-17T01:23:31.912Z,43.30
2022-12-17T01:26:20.779Z,43.47
2022-12-17T01:29:05.856Z,44.83
2022-12-17T01:31:47.762Z,44.00
2022-12-17T01:34:35.442Z,42.97
2022-12-17T01:37:21.897Z,42.53
2022-12-17T01:40:08.735Z,44.37
2022-12-17T01:42:58.079Z,44.93
2022-12-17T01:45:46.815Z,43.17
2022-12-17T01:48:35.056Z,42.13
2022-12-17T01:51:33.324Z,42.50
2022-12-17T01:54:20.976Z,42.70
2022-12-17T01:57:08.347Z,43.70
2022-12-17T02:00:01.283Z,41.67
2022-12-17T02:02:47.769Z,43.60
2022-12-17T02:05:33.291Z,42.70
2022-12-17T02:08:32.124Z,42.60
2022-12-17T02:11:28.603Z,40.97
2022-12-17T02:14:22.004Z,41.20
2022-12-17T02:17:11.860Z,40.33
2022-12-17T02:20:08.145Z,41.40
2022-12-17T02:23:05.892Z,40.57
2022-12-17T02:25:58.272Z,39.17
2022-12-17T02:28:47.206Z,39.37
2022-12-17T02:31:34.728Z,39.40
2022-12-17T02:34:20.920Z,37.53
2022-12-17T02:37:08.524Z,38.20
2022-12-17T02:39:56.113Z,38.07
2022-12-17T02:42:44.668Z,35.63
2022-12-17T02:45:32.667Z,35.50
2022-12-17T02:48:19.819Z,35.53
2022-12-17T02:51:06.115Z,34.67
2022-12-17T02:53:51.573Z,35.27
2022-12-17T02:56:36.815Z,35.27
2022-12-17T02:59:22.665Z,34.10
2022-12-17T03:02:10.245Z,33.93
2022-12-17T03:04:55.618Z,34.43
2022-12-17T03:07:41.155Z,34.70
2022-12-17T03:10:27.270Z,32.17
2022-12-17T03:13:12.648Z,32.20
2022-12-17T03:15:58.449Z,31.97
2022-12-17T03:18:45.393Z,33.10
2022-12-17T03:21:30.635Z,31.73
2022-12-17T03:24:27.802Z,32.33
2022-12-17T03:27:12.942Z,32.17
2022-12-17T03:29:58.488Z,30.67
2022-12-17T03:32:43.758Z,30.43
2022-12-17T03:35:30.547Z,31.27
2022-12-17T03:38:17.038Z,30.97
2022-12-17T03:41:02.465Z,31.37
2022-12-17T03:43:47.949Z,31.90
2022-12-17T03:46:33.229Z,31.83
2022-12-17T03:49:18.684Z,30.90
2022-12-17T03:52:05.269Z,30.13
2022-12-17T03:54:50.815Z,29.90
2022-12-17T03:57:36.239Z,31.00
2022-12-17T04:00:22.928Z,31.30
2022-12-17T04:03:08.492Z,31.20
2022-12-17T04:05:53.805Z,31.00
2022-12-17T04:08:40.719Z,30.30
2022-12-17T04:11:26.085Z,31.03
2022-12-17T04:14:11.580Z,30.50
2022-12-17T04:16:57.085Z,29.77
2022-12-17T04:19:42.553Z,31.30
2022-12-17T04:22:27.901Z,30.37
2022-12-17T04:25:14.835Z,30.27
2022-12-17T04:28:00.258Z,29.87
2022-12-17T04:30:45.583Z,29.77
2022-12-17T04:33:30.979Z,30.67
2022-12-17T04:36:16.371Z,29.97
2022-12-17T04:39:01.963Z,30.80
2022-12-17T04:41:48.541Z,30.10
2022-12-17T04:44:48.588Z,29.83
2022-12-17T04:47:33.811Z,29.47
2022-12-17T04:50:19.045Z,29.27
2022-12-17T04:53:04.620Z,29.10
2022-12-17T04:55:49.876Z,28.40
2022-12-17T04:58:39.043Z,29.30
2022-12-17T05:01:30.226Z,29.80
2022-12-17T05:04:15.883Z,29.50
2022-12-17T05:07:01.138Z,29.00
2022-12-17T05:09:46.883Z,27.30
2022-12-17T05:12:32.083Z,27.97
2022-12-17T05:15:18.952Z,28.97
2022-12-17T05:18:04.508Z,27.20
2022-12-17T05:20:49.792Z,28.40
2022-12-17T05:23:35.715Z,27.50
2022-12-17T05:26:23.429Z,27.77
2022-12-17T05:29:13.990Z,25.77
2022-12-17T05:32:02.685Z,26.50
2022-12-17T05:34:48.227Z,25.57
2022-12-17T05:37:33.564Z,25.90
2022-12-17T05:40:19.046Z,27.63
2022-12-17T05:43:13.747Z,27.80
2022-12-17T05:45:59.543Z,26.83
2022-12-17T05:48:46.502Z,27.03
2022-12-17T05:51:35.792Z,26.90
2022-12-17T05:54:24.131Z,28.53
2022-12-17T05:57:09.475Z,26.33
2022-12-17T05:59:55.215Z,26.13
2022-12-17T06:02:40.970Z,27.03
2022-12-17T06:05:28.539Z,26.27
2022-12-17T06:08:22.155Z,26.00
2022-12-17T06:11:07.406Z,25.53
2022-12-17T06:13:52.958Z,25.10
2022-12-17T06:16:38.495Z,26.00
2022-12-17T06:19:23.839Z,25.33
2022-12-17T06:22:10.887Z,24.97
2022-12-17T06:25:07.891Z,24.63
2022-12-17T06:27:53.440Z,24.83
2022-12-17T06:30:38.552Z,25.30
2022-12-17T06:33:24.892Z,25.70
2022-12-17T06:36:15.388Z,24.63
2022-12-17T06:39:06.632Z,24.70
2022-12-17T06:41:51.972Z,23.93
2022-12-17T06:44:37.924Z,23.43
2022-12-17T06:47:23.214Z,22.83
2022-12-17T06:50:08.822Z,25.10
2022-12-17T06:52:54.394Z,24.30
2022-12-17T06:55:41.110Z,24.33
2022-12-17T06:58:28.110Z,23.60
2022-12-17T07:01:13.660Z,23.87
2022-12-17T07:03:59.116Z,23.57
2022-12-17T07:06:44.461Z,22.87
2022-12-17T07:09:29.963Z,22.77
2022-12-17T07:12:16.760Z,21.87
2022-12-17T07:15:02.273Z,22.73
2022-12-17T07:17:47.750Z,22.00
2022-12-17T07:20:33.443Z,20.97
2022-12-17T07:23:19.059Z,22.73
2022-12-17T07:26:04.447Z,21.73
2022-12-17T07:28:51.442Z,29.05
2022-12-17T07:31:36.689Z,34.73
2022-12-17T07:34:22.048Z,31.83
2022-12-17T07:37:07.529Z,29.93
2022-12-17T07:39:52.895Z,29.10
2022-12-17T07:42:38.270Z,26.27
2022-12-17T07:45:26.988Z,25.27
2022-12-17T07:48:12.651Z,25.80
2022-12-17T07:50:57.997Z,26.03
2022-12-17T07:53:43.455Z,25.60
2022-12-17T07:56:28.861Z,28.07
2022-12-17T07:59:14.408Z,31.93
2022-12-17T08:02:01.268Z,29.37
2022-12-17T08:04:47.022Z,31.00
2022-12-17T08:07:32.655Z,30.83
2022-12-17T08:10:18.116Z,28.70
2022-12-17T08:13:14.363Z,27.90
2022-12-17T08:16:00.442Z,26.53
2022-12-17T08:18:49.940Z,25.30
2022-12-17T08:21:35.069Z,24.83
2022-12-17T08:24:20.586Z,22.67
2022-12-17T08:27:05.739Z,22.57
2022-12-17T08:29:51.479Z,22.87
2022-12-17T08:32:36.827Z,25.40
2022-12-17T08:35:24.206Z,23.83
2022-12-17T08:38:09.822Z,23.70
2022-12-17T08:40:55.200Z,22.73
2022-12-17T08:43:40.900Z,21.90
2022-12-17T08:46:26.383Z,22.37
2022-12-17T08:49:11.592Z,22.07
2022-12-17T08:51:58.493Z,23.20
2022-12-17T08:54:44.078Z,22.13
2022-12-17T08:57:32.658Z,21.13
2022-12-17T09:00:18.329Z,23.70
2022-12-17T09:03:04.026Z,23.33
2022-12-17T09:05:49.644Z,23.77
2022-12-17T09:08:36.395Z,26.03
2022-12-17T09:11:21.693Z,25.03
2022-12-17T09:14:07.137Z,23.77
2022-12-17T09:16:51.665Z,23.97
2022-12-17T09:19:37.260Z,25.13
2022-12-17T09:22:22.557Z,25.80
2022-12-17T09:25:09.464Z,27.30
2022-12-17T09:28:09.485Z,26.90
2022-12-17T09:30:55.010Z,26.33
2022-12-17T09:33:40.551Z,26.10
2022-12-17T09:36:27.380Z,26.10
2022-12-17T09:39:12.986Z,26.03
2022-12-17T09:42:06.929Z,24.70
2022-12-17T09:45:02.552Z,33.10
2022-12-17T09:48:00.713Z,26.83
2022-12-17T09:50:46.513Z,26.40
2022-12-17T09:53:40.173Z,25.97
2022-12-17T09:56:30.260Z,27.10
2022-12-17T09:59:17.406Z,27.13
2022-12-17T10:02:03.421Z,26.80
2022-12-17T10:04:53.405Z,26.97
2022-12-17T10:07:42.241Z,26.00
2022-12-17T10:10:37.387Z,29.07
2022-12-17T10:13:32.719Z,32.00
2022-12-17T10:16:20.062Z,29.03
2022-12-17T10:19:06.020Z,32.47
2022-12-17T10:21:54.763Z,34.17
2022-12-17T10:24:43.516Z,30.60
2022-12-17T10:27:30.544Z,27.90
2022-12-17T10:30:16.066Z,28.53
2022-12-17T10:33:13.142Z,28.80
2022-12-17T10:35:58.809Z,28.17
2022-12-17T10:38:46.706Z,28.57
2022-12-17T10:41:43.522Z,30.97
2022-12-17T10:44:42.867Z,28.33
2022-12-17T10:47:30.740Z,30.33
2022-12-17T10:50:19.376Z,30.67
2022-12-17T10:53:21.081Z,29.63
2022-12-17T10:56:08.923Z,28.30
2022-12-17T10:58:55.092Z,28.47
2022-12-17T11:01:42.782Z,27.90
2022-12-17T11:04:46.036Z,27.00
2022-12-17T11:07:37.805Z,28.53
2022-12-17T11:10:32.364Z,34.27
2022-12-17T11:13:22.106Z,32.63
2022-12-17T11:16:08.739Z,27.23
2022-12-17T11:19:03.358Z,26.53
2022-12-17T11:21:53.973Z,26.00
2022-12-17T11:24:45.222Z,25.83
2022-12-17T11:27:37.709Z,24.37
2022-12-17T11:30:31.095Z,26.40
2022-12-17T11:33:37.888Z,26.77
2022-12-17T11:36:38.468Z,27.00
2022-12-17T11:39:31.780Z,26.90
2022-12-17T11:42:23.230Z,27.73
2022-12-17T11:45:17.681Z,27.13
2022-12-17T11:48:10.676Z,25.53
2022-12-17T11:51:19.400Z,26.73
2022-12-17T11:54:13.563Z,26.90
2022-12-17T11:57:03.726Z,25.57
2022-12-17T11:59:57.003Z,25.13
2022-12-17T12:03:01.514Z,24.27
2022-12-17T12:06:03.276Z,24.40
2022-12-17T12:08:53.645Z,24.17
2022-12-17T12:11:48.932Z,24.20
2022-12-17T12:14:44.548Z,24.20
2022-12-17T12:17:46.325Z,23.83
2022-12-17T12:20:46.766Z,23.30
2022-12-17T12:23:40.900Z,24.37
2022-12-17T12:26:31.973Z,23.27
2022-12-17T12:29:23.992Z,24.00
2022-12-17T12:32:20.189Z,23.73
2022-12-17T12:35:07.503Z,23.23
2022-12-17T12:37:53.711Z,23.17
2022-12-17T12:40:52.648Z,28.38
2022-12-17T12:43:40.672Z,29.17
2022-12-17T12:46:33.600Z,25.97
2022-12-17T12:49:25.934Z,23.27
2022-12-17T12:52:14.169Z,22.93
2022-12-17T12:55:11.287Z,23.20
2022-12-17T12:57:59.371Z,22.50
2022-12-17T13:00:50.323Z,22.13
2022-12-17T13:03:45.381Z,22.47
2022-12-17T13:06:15.909Z,22.30
2022-12-17T13:08:45.107Z,21.33
2022-12-17T13:11:29.133Z,21.73
2022-12-17T13:14:03.324Z,21.50
2022-12-17T13:16:43.465Z,21.50
2022-12-17T13:19:21.911Z,23.00
2022-12-17T13:21:49.783Z,24.70
2022-12-17T13:24:27.209Z,21.77
2022-12-17T13:26:55.372Z,21.43
2022-12-17T13:29:29.168Z,21.53
2022-12-17T13:32:09.683Z,21.30
2022-12-17T13:34:52.859Z,21.90
2022-12-17T13:37:33.964Z,20.77
2022-12-17T13:40:19.051Z,19.90
2022-12-17T13:42:47.756Z,18.93
2022-12-17T13:45:17.772Z,18.20
2022-12-17T13:47:53.221Z,20.10
2022-12-17T13:50:38.345Z,20.77
2022-12-17T13:53:13.285Z,19.73
2022-12-17T13:55:42.608Z,19.37
2022-12-17T13:58:23.258Z,19.07
2022-12-17T14:00:51.328Z,18.37
2022-12-17T14:03:32.360Z,18.27
2022-12-17T14:06:12.389Z,16.10
2022-12-17T14:08:41.593Z,16.13
2022-12-17T14:11:30.731Z,15.47
2022-12-17T14:13:58.840Z,16.07
2022-12-17T14:16:26.874Z,14.70
2022-12-17T14:18:57.753Z,15.33
2022-12-17T14:21:27.171Z,15.07
2022-12-17T14:23:55.793Z,15.07
2022-12-17T14:26:25.084Z,14.87
2022-12-17T14:28:55.306Z,15.40
2022-12-17T14:31:28.573Z,14.97
2022-12-17T14:34:07.387Z,14.13
2022-12-17T14:36:38.579Z,14.27
2022-12-17T14:39:16.768Z,14.87
2022-12-17T14:42:03.583Z,14.30
2022-12-17T14:44:32.688Z,13.90
2022-12-17T14:47:12.502Z,13.87
2022-12-17T14:49:55.889Z,14.43
2022-12-17T14:52:35.795Z,13.43
2022-12-17T14:55:23.707Z,15.43
2022-12-17T14:57:53.790Z,10.90
2022-12-17T15:00:22.100Z,17.40
2022-12-17T15:02:55.478Z,15.80
2022-12-17T15:05:23.532Z,15.03
2022-12-17T15:07:51.707Z,12.50
2022-12-17T15:10:21.610Z,17.03
2022-12-17T15:12:51.355Z,15.13
2022-12-17T15:15:21.873Z,16.00
2022-12-17T15:17:49.818Z,18.03
2022-12-17T15:20:19.626Z,20.67
2022-12-17T15:22:48.621Z,18.50
2022-12-17T15:25:18.857Z,16.73
2022-12-17T15:27:47.141Z,16.80
2022-12-17T15:30:16.680Z,16.93
2022-12-17T15:32:48.145Z,16.47
2022-12-17T15:35:16.192Z,18.97
2022-12-17T15:37:43.995Z,17.80
2022-12-17T15:40:12.492Z,16.53
2022-12-17T15:43:01.686Z,17.83
2022-12-17T15:45:33.819Z,17.37
2022-12-17T15:48:03.061Z,18.67
2022-12-17T15:50:31.590Z,17.43
2022-12-17T15:52:59.399Z,17.87
2022-12-17T15:55:27.484Z,18.03
2022-12-17T15:57:55.292Z,16.80
2022-12-17T16:00:24.299Z,18.13
2022-12-17T16:02:52.815Z,18.10
2022-12-17T16:05:24.161Z,18.57
2022-12-17T16:07:52.459Z,17.13
2022-12-17T16:10:20.486Z,17.80
2022-12-17T16:12:48.342Z,19.43
2022-12-17T16:15:16.144Z,18.33
2022-12-17T16:17:43.984Z,18.20
2022-12-17T16:20:12.632Z,18.77
2022-12-17T16:22:41.809Z,19.20
2022-12-17T16:25:10.371Z,18.37
2022-12-17T16:27:38.207Z,18.67
2022-12-17T16:30:07.098Z,18.77
2022-12-17T16:32:36.744Z,17.83
2022-12-17T16:35:05.666Z,17.30
2022-12-17T16:37:33.527Z,18.03
2022-12-17T16:40:02.940Z,18.13
2022-12-17T16:42:30.840Z,18.50
2022-12-17T16:44:58.674Z,17.93
2022-12-17T16:47:26.425Z,17.33
2022-12-17T16:49:54.291Z,18.10
2022-12-17T16:52:22.090Z,17.73
2022-12-17T16:54:49.923Z,16.33
2022-12-17T16:57:19.035Z,17.10
2022-12-17T16:59:46.945Z,16.27
2022-12-17T17:02:16.457Z,17.27
2022-12-17T17:04:44.405Z,15.53
2022-12-17T17:07:12.249Z,15.57
2022-12-17T17:09:40.225Z,16.40
2022-12-17T17:12:08.914Z,18.67
2022-12-17T17:14:38.219Z,18.40
2022-12-17T17:17:06.250Z,21.73
2022-12-17T17:19:34.045Z,20.63
2022-12-17T17:22:02.098Z,23.53
2022-12-17T17:24:29.866Z,19.37
2022-12-17T17:26:57.731Z,16.53
2022-12-17T17:29:25.561Z,16.03
2022-12-17T17:32:10.216Z,16.57
2022-12-17T17:34:39.005Z,26.23
2022-12-17T17:37:06.803Z,21.67
2022-12-17T17:39:34.705Z,21.40
2022-12-17T17:42:03.302Z,17.57
2022-12-17T17:44:31.086Z,15.17
2022-12-17T17:47:00.396Z,17.77
2022-12-17T17:49:28.888Z,16.43
2022-12-17T17:52:12.544Z,16.50
2022-12-17T17:54:41.288Z,16.47
2022-12-17T17:57:09.756Z,15.53
2022-12-17T17:59:39.268Z,16.23
2022-12-17T18:02:09.137Z,17.43
2022-12-17T18:04:37.350Z,15.33
2022-12-17T18:09:53.169Z,16.37
2022-12-17T18:12:39.703Z,16.53
2022-12-17T18:15:17.675Z,15.53
2022-12-17T18:17:50.853Z,16.33
2022-12-17T18:20:19.460Z,16.97
2022-12-17T18:22:47.657Z,17.43
2022-12-17T18:25:16.053Z,18.10
2022-12-17T18:27:44.296Z,18.23
2022-12-17T18:30:12.900Z,17.70
2022-12-17T18:32:40.720Z,17.87
2022-12-17T18:35:10.838Z,16.43
2022-12-17T18:37:39.195Z,17.83
2022-12-17T18:40:08.353Z,17.57
2022-12-17T18:42:53.843Z,17.57
2022-12-17T18:45:21.736Z,16.60
2022-12-17T18:47:50.838Z,16.77
2022-12-17T18:50:20.341Z,17.97
2022-12-17T18:52:48.369Z,17.73
2022-12-17T18:55:16.271Z,17.97
2022-12-17T18:57:44.187Z,19.20
2022-12-17T19:00:13.261Z,18.77
2022-12-17T19:02:41.252Z,18.40
2022-12-17T19:05:09.625Z,17.97
2022-12-17T19:07:38.824Z,18.17
2022-12-17T19:10:07.644Z,18.47
2022-12-17T19:12:35.768Z,17.47
2022-12-17T19:15:03.528Z,17.93
2022-12-17T19:17:31.395Z,18.37
2022-12-17T19:19:59.277Z,17.67
2022-12-17T19:22:27.192Z,17.67
2022-12-17T19:24:56.376Z,18.23
2022-12-17T19:27:24.493Z,18.53
2022-12-17T19:29:56.948Z,18.03
2022-12-17T19:32:25.264Z,19.67
2022-12-17T19:34:53.097Z,18.57
2022-12-17T19:37:20.935Z,18.83
2022-12-17T19:39:48.706Z,18.50
2022-12-17T19:42:25.324Z,18.97
2022-12-17T19:44:54.053Z,17.40
2022-12-17T19:47:22.780Z,19.83
2022-12-17T19:49:50.659Z,17.90
2022-12-17T19:52:18.846Z,20.40
2022-12-17T19:54:46.687Z,18.67
2022-12-17T19:57:14.467Z,18.40
2022-12-17T19:59:43.678Z,19.20
2022-12-17T20:02:11.666Z,19.27
2022-12-17T20:04:39.687Z,19.47
2022-12-17T20:07:07.499Z,18.77
2022-12-17T20:09:35.328Z,18.13
2022-12-17T20:12:03.100Z,18.13
2022-12-17T20:14:31.485Z,17.40
2022-12-17T20:17:02.071Z,17.63
2022-12-17T20:19:31.317Z,18.63
2022-12-17T20:22:00.052Z,17.97
2022-12-17T20:24:31.676Z,18.57
2022-12-17T20:27:00.961Z,20.00
2022-12-17T20:29:29.308Z,18.33
2022-12-17T20:31:57.344Z,19.37
2022-12-17T20:34:26.570Z,18.33
2022-12-17T20:36:54.949Z,17.87
2022-12-17T20:39:27.439Z,17.20
2022-12-17T20:41:56.932Z,17.53
2022-12-17T20:44:25.004Z,17.27
2022-12-17T20:46:53.035Z,18.60
2022-12-17T20:49:20.940Z,16.70
2022-12-17T20:51:50.163Z,17.73
2022-12-17T20:54:18.079Z,17.20
2022-12-17T20:56:45.947Z,17.67
2022-12-17T20:59:17.170Z,17.90
2022-12-17T21:01:49.138Z,16.73
2022-12-17T21:04:20.944Z,17.43
2022-12-17T21:06:50.265Z,16.77
2022-12-17T21:09:20.032Z,18.20
2022-12-17T21:11:47.900Z,16.63
2022-12-17T21:14:17.714Z,17.00
2022-12-17T21:16:46.518Z,16.47
2022-12-17T21:19:16.345Z,16.70
2022-12-17T21:21:44.441Z,17.33
2022-12-17T21:24:13.753Z,16.93
2022-12-17T21:26:43.606Z,16.53
2022-12-17T21:29:11.725Z,15.93
2022-12-17T21:31:41.256Z,16.10
2022-12-17T21:34:12.724Z,16.73
2022-12-17T21:36:41.056Z,16.40
2022-12-17T21:39:10.125Z,16.40
2022-12-17T21:41:43.181Z,15.70
2022-12-17T21:44:15.448Z,16.23
2022-12-17T21:46:49.612Z,16.43
2022-12-17T21:49:18.938Z,15.93
2022-12-17T21:51:46.972Z,14.93
2022-12-17T21:54:19.378Z,14.73
2022-12-17T21:56:49.291Z,15.67
2022-12-17T21:59:17.294Z,14.97
2022-12-17T22:01:45.370Z,14.83
2022-12-17T22:04:13.460Z,16.13
2022-12-17T22:06:45.081Z,16.20
2022-12-17T22:09:27.055Z,15.43
2022-12-17T22:12:17.823Z,15.80
2022-12-17T22:14:45.915Z,14.73
2022-12-17T22:17:13.965Z,14.43
2022-12-17T22:19:41.925Z,15.93
2022-12-17T22:22:09.781Z,15.63
2022-12-17T22:24:37.700Z,15.20
2022-12-17T22:27:08.812Z,15.43
2022-12-17T22:29:55.184Z,14.97
2022-12-17T22:32:49.259Z,15.47
2022-12-17T22:36:18.762Z,15.17
2022-12-17T22:40:28.826Z,15.53
2022-12-17T22:44:35.377Z,14.93
2022-12-17T22:44:46.298Z,15.77
2022-12-17T22:46:31.534Z,15.57
2022-12-17T22:48:59.834Z,15.47
2022-12-17T22:51:33.713Z,16.03
2022-12-17T22:54:04.412Z,16.17
2022-12-17T22:57:32.046Z,14.90
2022-12-17T22:59:25.341Z,15.07
2022-12-17T23:01:53.479Z,16.27
2022-12-17T23:04:21.473Z,15.97
2022-12-17T23:06:49.461Z,15.03
2022-12-17T23:09:19.369Z,14.87
2022-12-17T23:11:49.021Z,14.30
2022-12-17T23:14:17.482Z,15.47
2022-12-17T23:16:46.816Z,15.30
2022-12-17T23:19:15.025Z,16.00
2022-12-17T23:21:42.926Z,15.43
2022-12-17T23:24:10.894Z,14.80
2022-12-17T23:26:39.833Z,14.70
2022-12-17T23:29:11.644Z,14.57
2022-12-17T23:31:41.762Z,13.97
2022-12-17T23:34:10.925Z,15.07
2022-12-17T23:36:39.045Z,15.23
2022-12-17T23:39:07.813Z,14.90
2022-12-17T23:41:35.769Z,15.53
2022-12-17T23:44:05.232Z,16.03
2022-12-17T23:46:33.286Z,15.10
2022-12-17T23:49:01.111Z,15.53
2022-12-17T23:51:30.545Z,15.67
2022-12-17T23:53:59.774Z,15.37
2022-12-17T23:56:28.895Z,14.87
2022-12-17T23:58:58.931Z,15.37
